createdAt,value
2018-12-20T00:00:36.195Z,3.70
2018-12-20T00:03:04.589Z,3.60
2018-12-20T00:05:32.857Z,3.70
2018-12-20T00:08:01.546Z,3.80
2018-12-20T00:10:29.880Z,3.80
2018-12-20T00:12:58.134Z,3.90
2018-12-20T00:15:26.445Z,3.80
2018-12-20T00:17:54.755Z,3.80
2018-12-20T00:20:23.026Z,3.80
2018-12-20T00:22:51.437Z,3.90
2018-12-20T00:25:19.677Z,3.90
2018-12-20T00:27:47.874Z,3.90
2018-12-20T00:30:16.189Z,3.90
2018-12-20T00:32:44.465Z,4.00
2018-12-20T00:35:12.917Z,3.90
2018-12-20T00:37:41.213Z,3.90
2018-12-20T00:40:09.473Z,3.90
2018-12-20T00:42:37.965Z,3.90
2018-12-20T00:45:06.187Z,3.90
2018-12-20T00:47:34.476Z,3.90
2018-12-20T00:50:02.926Z,3.90
2018-12-20T00:52:31.138Z,3.80
2018-12-20T00:54:59.259Z,3.80
2018-12-20T00:57:27.470Z,3.80
2018-12-20T00:59:55.678Z,3.80
2018-12-20T01:02:24.052Z,3.80
2018-12-20T01:04:52.352Z,3.80
2018-12-20T01:07:20.522Z,3.80
2018-12-20T01:09:48.648Z,3.60
2018-12-20T01:12:16.986Z,3.70
2018-12-20T01:14:45.843Z,3.70
2018-12-20T01:17:14.190Z,3.70
2018-12-20T01:19:42.504Z,3.70
2018-12-20T01:22:10.809Z,3.70
2018-12-20T01:24:39.011Z,3.60
2018-12-20T01:27:07.300Z,3.80
2018-12-20T01:29:35.508Z,3.70
2018-12-20T01:32:03.789Z,3.70
2018-12-20T01:34:32.064Z,3.60
2018-12-20T01:37:00.179Z,3.70
2018-12-20T01:39:28.363Z,3.80
2018-12-20T01:41:56.512Z,3.70
2018-12-20T01:44:24.635Z,3.80
2018-12-20T01:46:52.764Z,3.70
2018-12-20T01:49:20.947Z,3.70
2018-12-20T01:51:49.196Z,3.60
2018-12-20T01:54:17.469Z,3.60
2018-12-20T01:56:45.671Z,3.60
2018-12-20T01:59:13.780Z,3.70
2018-12-20T02:01:42.161Z,3.80
2018-12-20T02:06:59.576Z,3.80
2018-12-20T02:09:27.960Z,3.80
2018-12-20T02:11:56.148Z,3.90
2018-12-20T02:14:24.240Z,3.80
2018-12-20T02:16:52.337Z,3.80
2018-12-20T02:19:20.541Z,3.80
2018-12-20T02:21:48.825Z,3.70
2018-12-20T02:24:17.108Z,3.70
2018-12-20T02:26:45.325Z,3.70
2018-12-20T02:29:13.510Z,3.70
2018-12-20T02:31:41.673Z,3.70
2018-12-20T02:34:09.961Z,3.70
2018-12-20T02:36:38.422Z,3.70
2018-12-20T02:39:08.200Z,3.60
2018-12-20T02:41:36.932Z,3.70
2018-12-20T02:44:05.208Z,3.70
2018-12-20T02:46:33.409Z,3.80
2018-12-20T02:49:01.560Z,3.80
2018-12-20T02:51:29.682Z,3.70
2018-12-20T02:53:58.042Z,3.60
2018-12-20T02:56:26.234Z,3.70
2018-12-20T02:58:54.428Z,3.70
2018-12-20T03:01:22.778Z,3.70
2018-12-20T03:03:50.983Z,3.70
2018-12-20T03:06:19.158Z,3.60
2018-12-20T03:08:47.332Z,3.50
2018-12-20T03:11:15.441Z,3.60
2018-12-20T03:13:43.622Z,3.80
2018-12-20T03:16:11.950Z,3.80
2018-12-20T03:18:40.466Z,3.80
2018-12-20T03:21:08.850Z,3.70
2018-12-20T03:23:37.071Z,3.70
2018-12-20T03:26:05.427Z,3.80
2018-12-20T03:28:33.896Z,3.70
2018-12-20T03:31:02.534Z,3.70
2018-12-20T03:33:30.832Z,3.60
2018-12-20T03:35:59.106Z,3.60
2018-12-20T03:38:27.299Z,3.60
2018-12-20T03:40:55.403Z,3.60
2018-12-20T03:43:23.881Z,3.70
2018-12-20T03:45:52.283Z,3.80
2018-12-20T03:48:20.512Z,3.70
2018-12-20T03:50:48.825Z,3.60
2018-12-20T03:53:17.088Z,3.50
2018-12-20T03:55:45.342Z,3.50
2018-12-20T03:58:13.472Z,3.60
2018-12-20T04:00:41.569Z,3.60
2018-12-20T04:03:09.891Z,3.60
2018-12-20T04:05:38.007Z,3.50
2018-12-20T04:08:06.108Z,3.60
2018-12-20T04:10:34.250Z,3.50
2018-12-20T04:13:02.651Z,3.50
2018-12-20T04:15:37.784Z,3.50
2018-12-20T04:18:01.383Z,3.60
2018-12-20T04:20:29.572Z,3.70
2018-12-20T04:22:57.800Z,3.60
2018-12-20T04:25:25.935Z,3.60
2018-12-20T04:27:54.129Z,3.60
2018-12-20T04:30:22.484Z,3.60
2018-12-20T04:32:50.775Z,3.70
2018-12-20T04:35:18.890Z,3.70
2018-12-20T04:37:47.214Z,3.60
2018-12-20T04:40:15.581Z,3.60
2018-12-20T04:42:43.911Z,3.60
2018-12-20T04:45:12.378Z,3.60
2018-12-20T04:47:40.812Z,3.60
2018-12-20T04:50:09.160Z,3.60
2018-12-20T04:52:37.371Z,3.60
2018-12-20T04:55:05.906Z,3.50
2018-12-20T04:57:34.256Z,3.70
2018-12-20T05:00:02.600Z,3.70
2018-12-20T05:02:30.737Z,3.60
2018-12-20T05:04:59.006Z,3.60
2018-12-20T05:07:27.299Z,3.60
2018-12-20T05:09:55.750Z,3.50
2018-12-20T05:12:24.078Z,3.50
2018-12-20T05:14:52.321Z,3.50
2018-12-20T05:17:20.455Z,3.50
2018-12-20T05:19:48.853Z,3.50
2018-12-20T05:22:17.128Z,3.40
2018-12-20T05:24:45.220Z,3.50
2018-12-20T05:27:13.431Z,3.50
2018-12-20T05:29:41.584Z,3.50
2018-12-20T05:32:09.675Z,3.50
2018-12-20T05:34:37.838Z,3.50
2018-12-20T05:37:06.198Z,3.50
2018-12-20T05:39:34.331Z,3.40
2018-12-20T05:42:02.524Z,3.50
2018-12-20T05:44:30.758Z,3.50
2018-12-20T05:46:58.987Z,3.40
2018-12-20T05:49:27.170Z,3.50
2018-12-20T05:51:55.292Z,3.40
2018-12-20T05:54:23.468Z,3.40
2018-12-20T05:56:51.733Z,3.40
2018-12-20T05:59:19.878Z,3.50
2018-12-20T06:01:48.104Z,3.50
2018-12-20T06:04:16.204Z,3.60
2018-12-20T06:06:44.390Z,3.50
2018-12-20T06:09:12.554Z,3.50
2018-12-20T06:11:40.741Z,3.40
2018-12-20T06:14:08.856Z,3.40
2018-12-20T06:16:37.270Z,3.40
2018-12-20T06:19:05.439Z,3.60
2018-12-20T06:21:33.609Z,3.50
2018-12-20T06:24:01.743Z,3.60
2018-12-20T06:26:29.851Z,3.60
2018-12-20T06:28:57.952Z,3.60
2018-12-20T06:31:32.575Z,3.60
2018-12-20T06:34:00.684Z,3.50
2018-12-20T06:36:28.772Z,3.50
2018-12-20T06:38:56.927Z,3.50
2018-12-20T06:41:25.026Z,3.40
2018-12-20T06:43:53.124Z,3.50
2018-12-20T06:46:21.602Z,3.40
2018-12-20T06:48:49.844Z,3.40
2018-12-20T06:51:17.955Z,3.50
2018-12-20T06:53:46.108Z,3.50
2018-12-20T06:56:14.204Z,3.50
2018-12-20T06:58:42.308Z,3.50
2018-12-20T07:01:10.443Z,3.60
2018-12-20T07:03:38.550Z,3.60
2018-12-20T07:06:06.690Z,3.60
2018-12-20T07:08:34.801Z,3.60
2018-12-20T07:11:02.903Z,3.60
2018-12-20T07:13:31.041Z,3.60
2018-12-20T07:15:59.140Z,3.50
2018-12-20T07:18:27.231Z,3.40
2018-12-20T07:20:55.384Z,3.50
2018-12-20T07:23:23.476Z,3.60
2018-12-20T07:25:51.576Z,3.60
2018-12-20T07:28:19.733Z,3.60
2018-12-20T07:30:47.823Z,3.60
2018-12-20T07:33:15.918Z,3.60
2018-12-20T07:35:44.063Z,3.60
2018-12-20T07:38:12.165Z,3.50
2018-12-20T07:40:40.251Z,3.50
2018-12-20T07:43:08.418Z,3.40
2018-12-20T07:45:36.525Z,3.50
2018-12-20T07:48:04.633Z,3.50
2018-12-20T07:50:32.832Z,3.60
2018-12-20T07:53:00.941Z,3.60
2018-12-20T07:55:29.047Z,3.70
2018-12-20T07:57:57.207Z,3.70
2018-12-20T08:00:27.256Z,3.70
2018-12-20T08:02:55.355Z,3.70
2018-12-20T08:05:23.492Z,3.70
2018-12-20T08:07:51.554Z,3.70
2018-12-20T08:10:19.824Z,3.80
2018-12-20T08:12:47.956Z,3.90
2018-12-20T08:15:16.056Z,3.90
2018-12-20T08:17:44.344Z,3.80
2018-12-20T08:20:12.427Z,3.80
2018-12-20T08:22:40.519Z,3.80
2018-12-20T08:25:08.688Z,3.80
2018-12-20T08:27:36.732Z,3.90
2018-12-20T08:30:05.192Z,4.00
2018-12-20T08:32:33.364Z,4.00
2018-12-20T08:35:01.543Z,4.00
2018-12-20T08:37:29.640Z,4.00
2018-12-20T08:39:57.836Z,3.90
2018-12-20T08:42:25.936Z,3.90
2018-12-20T08:44:54.028Z,3.90
2018-12-20T08:47:22.211Z,4.00
2018-12-20T08:49:50.356Z,3.90
2018-12-20T08:52:18.512Z,3.90
2018-12-20T08:54:46.652Z,3.90
2018-12-20T08:57:14.710Z,3.90
2018-12-20T08:59:42.795Z,4.00
2018-12-20T09:02:10.947Z,4.00
2018-12-20T09:04:39.042Z,3.90
2018-12-20T09:07:07.138Z,3.90
2018-12-20T09:09:35.260Z,4.00
2018-12-20T09:12:03.350Z,4.00
2018-12-20T09:14:31.497Z,4.00
2018-12-20T09:17:03.092Z,4.00
2018-12-20T09:19:29.700Z,4.00
2018-12-20T09:21:57.944Z,4.00
2018-12-20T09:24:26.037Z,4.00
2018-12-20T09:26:54.203Z,4.00
2018-12-20T09:29:22.387Z,4.10
2018-12-20T09:31:50.483Z,4.20
2018-12-20T09:34:18.694Z,4.20
2018-12-20T09:36:46.974Z,4.20
2018-12-20T09:39:15.292Z,4.20
2018-12-20T09:41:43.379Z,4.40
2018-12-20T09:44:11.508Z,4.40
2018-12-20T09:46:39.908Z,4.40
2018-12-20T09:49:08.008Z,4.40
2018-12-20T09:51:36.105Z,4.50
2018-12-20T09:54:04.462Z,4.30
2018-12-20T09:56:32.548Z,4.30
2018-12-20T09:59:00.764Z,4.30
2018-12-20T10:01:28.925Z,4.40
2018-12-20T10:03:57.019Z,4.40
2018-12-20T10:06:25.132Z,4.50
2018-12-20T10:08:53.285Z,4.70
2018-12-20T10:11:21.876Z,4.50
2018-12-20T10:13:49.981Z,4.50
2018-12-20T10:16:18.228Z,4.60
2018-12-20T10:18:46.330Z,4.60
2018-12-20T10:21:14.416Z,4.70
2018-12-20T10:23:42.563Z,4.80
2018-12-20T10:26:10.662Z,4.90
2018-12-20T10:28:38.768Z,4.90
2018-12-20T10:31:06.909Z,4.90
2018-12-20T10:33:35.020Z,4.80
2018-12-20T10:36:03.122Z,4.70
2018-12-20T10:38:31.388Z,4.70
2018-12-20T10:40:59.481Z,4.70
2018-12-20T10:43:27.572Z,4.70
2018-12-20T10:45:55.951Z,4.60
2018-12-20T10:48:24.044Z,4.60
2018-12-20T10:50:52.326Z,4.60
2018-12-20T10:53:20.496Z,4.70
2018-12-20T10:55:48.592Z,4.80
2018-12-20T10:58:16.700Z,4.80
2018-12-20T11:00:50.424Z,4.80
2018-12-20T11:03:23.896Z,4.80
2018-12-20T11:05:57.789Z,5.00
2018-12-20T11:08:27.895Z,4.90
2018-12-20T11:11:05.732Z,5.00
2018-12-20T11:13:33.864Z,5.10
2018-12-20T11:16:01.971Z,5.20
2018-12-20T11:18:30.215Z,5.20
2018-12-20T11:20:58.362Z,5.30
2018-12-20T11:23:26.472Z,5.40
2018-12-20T11:25:54.628Z,5.50
2018-12-20T11:28:22.732Z,5.50
2018-12-20T11:30:50.836Z,5.50
2018-12-20T11:33:19.004Z,5.50
2018-12-20T11:35:47.095Z,5.40
2018-12-20T11:38:15.283Z,5.30
2018-12-20T11:40:43.453Z,5.40
2018-12-20T11:43:11.543Z,5.40
2018-12-20T11:45:39.675Z,5.50
2018-12-20T11:48:07.965Z,5.40
2018-12-20T11:50:36.164Z,5.40
2018-12-20T11:53:04.315Z,5.40
2018-12-20T11:55:32.457Z,5.50
2018-12-20T11:58:00.589Z,5.50
2018-12-20T12:00:28.756Z,5.50
2018-12-20T12:02:56.853Z,5.50
2018-12-20T12:05:24.994Z,5.50
2018-12-20T12:07:53.163Z,5.50
2018-12-20T12:10:21.305Z,5.40
2018-12-20T12:12:49.528Z,5.40
2018-12-20T12:15:17.700Z,5.40
2018-12-20T12:17:54.045Z,5.40
2018-12-20T12:20:15.909Z,5.50
2018-12-20T12:22:44.060Z,5.40
2018-12-20T12:25:12.364Z,5.40
2018-12-20T12:27:40.484Z,5.30
2018-12-20T12:30:09.712Z,5.30
2018-12-20T12:32:38.023Z,5.20
2018-12-20T12:35:06.244Z,5.20
2018-12-20T12:37:34.343Z,5.20
2018-12-20T12:40:02.489Z,5.30
2018-12-20T12:42:30.579Z,5.30
2018-12-20T12:44:58.684Z,5.30
2018-12-20T12:47:32.264Z,5.40
2018-12-20T12:50:00.420Z,5.30
2018-12-20T12:52:28.511Z,5.20
2018-12-20T12:54:56.860Z,5.20
2018-12-20T12:57:24.959Z,5.10
2018-12-20T12:59:53.044Z,5.00
2018-12-20T13:02:21.203Z,4.90
2018-12-20T13:04:49.293Z,4.80
2018-12-20T13:07:17.401Z,4.90
2018-12-20T13:09:45.546Z,4.90
2018-12-20T13:12:13.684Z,5.00
2018-12-20T13:14:41.840Z,4.90
2018-12-20T13:17:09.943Z,5.00
2018-12-20T13:19:38.044Z,4.90
2018-12-20T13:22:06.199Z,5.00
2018-12-20T13:24:34.302Z,5.00
2018-12-20T13:27:02.403Z,4.90
2018-12-20T13:29:30.716Z,4.90
2018-12-20T13:31:58.808Z,4.90
2018-12-20T13:34:26.857Z,4.90
2018-12-20T13:36:55.016Z,5.00
2018-12-20T13:39:23.106Z,5.10
2018-12-20T13:41:51.192Z,5.10
2018-12-20T13:44:19.345Z,5.10
2018-12-20T13:46:47.707Z,5.10
2018-12-20T13:49:15.803Z,5.10
2018-12-20T13:51:43.988Z,5.10
2018-12-20T13:54:12.106Z,5.20
2018-12-20T13:56:40.253Z,5.10
2018-12-20T13:59:08.356Z,5.10
2018-12-20T14:01:36.444Z,5.20
2018-12-20T14:04:04.604Z,5.20
2018-12-20T14:06:32.776Z,5.30
2018-12-20T14:09:00.884Z,5.30
2018-12-20T14:11:29.188Z,5.20
2018-12-20T14:13:57.300Z,5.20
2018-12-20T14:16:25.395Z,5.20
2018-12-20T14:18:53.531Z,5.10
2018-12-20T14:21:21.627Z,5.10
2018-12-20T14:23:49.775Z,5.10
2018-12-20T14:26:17.873Z,5.00
2018-12-20T14:28:46.177Z,5.00
2018-12-20T14:31:14.262Z,4.90
2018-12-20T14:33:42.316Z,4.90
2018-12-20T14:36:10.447Z,4.90
2018-12-20T14:38:38.613Z,4.90
2018-12-20T14:41:06.699Z,4.80
2018-12-20T14:43:34.803Z,4.90
2018-12-20T14:46:02.969Z,4.70
2018-12-20T14:48:38.977Z,4.70
2018-12-20T14:51:01.485Z,4.60
2018-12-20T14:53:29.772Z,4.70
2018-12-20T14:55:57.829Z,4.70
2018-12-20T14:58:25.964Z,4.70
2018-12-20T15:00:54.195Z,4.70
2018-12-20T15:03:22.308Z,4.70
2018-12-20T15:05:50.407Z,4.60
2018-12-20T15:08:18.556Z,4.60
2018-12-20T15:10:46.652Z,4.60
2018-12-20T15:13:14.756Z,4.60
2018-12-20T15:15:42.935Z,4.60
2018-12-20T15:18:11.052Z,4.60
2018-12-20T15:20:40.729Z,4.70
2018-12-20T15:23:09.334Z,4.60
2018-12-20T15:25:37.526Z,4.50
2018-12-20T15:28:05.688Z,4.50
2018-12-20T15:30:34.000Z,4.40
2018-12-20T15:33:02.080Z,4.40
2018-12-20T15:35:30.316Z,4.40
2018-12-20T15:37:58.662Z,4.40
2018-12-20T15:40:26.851Z,4.40
2018-12-20T15:42:54.951Z,4.40
2018-12-20T15:45:23.116Z,4.40
2018-12-20T15:47:51.207Z,4.40
2018-12-20T15:50:19.300Z,4.40
2018-12-20T15:52:47.463Z,4.40
2018-12-20T15:55:15.707Z,4.50
2018-12-20T15:57:43.896Z,4.40
2018-12-20T16:00:12.195Z,4.40
2018-12-20T16:02:40.313Z,4.40
2018-12-20T16:05:08.496Z,4.50
2018-12-20T16:07:36.684Z,4.60
2018-12-20T16:10:05.832Z,4.50
2018-12-20T16:12:33.943Z,4.60
2018-12-20T16:15:02.191Z,4.60
2018-12-20T16:17:30.378Z,4.50
2018-12-20T16:19:58.488Z,4.60
2018-12-20T16:22:26.739Z,4.50
2018-12-20T16:24:54.851Z,4.40
2018-12-20T16:27:22.937Z,4.40
2018-12-20T16:29:51.217Z,4.40
2018-12-20T16:32:19.442Z,4.50
2018-12-20T16:34:47.620Z,4.50
2018-12-20T16:37:15.881Z,4.40
2018-12-20T16:39:43.994Z,4.50
2018-12-20T16:42:12.089Z,4.60
2018-12-20T16:44:40.224Z,4.50
2018-12-20T16:47:08.316Z,4.50
2018-12-20T16:49:36.508Z,4.60
2018-12-20T16:52:04.605Z,4.50
2018-12-20T16:54:32.807Z,4.50
2018-12-20T16:57:01.203Z,4.60
2018-12-20T16:59:29.352Z,4.60
2018-12-20T17:01:57.467Z,4.60
2018-12-20T17:04:25.647Z,4.60
2018-12-20T17:06:53.708Z,4.60
2018-12-20T17:09:21.816Z,4.60
2018-12-20T17:11:49.963Z,4.50
2018-12-20T17:14:18.197Z,4.50
2018-12-20T17:16:46.300Z,4.50
2018-12-20T17:19:21.836Z,4.50
2018-12-20T17:21:44.599Z,4.50
2018-12-20T17:24:12.743Z,4.60
2018-12-20T17:26:40.852Z,4.60
2018-12-20T17:29:09.018Z,4.60
2018-12-20T17:31:37.131Z,4.70
2018-12-20T17:34:05.216Z,4.70
2018-12-20T17:36:33.373Z,4.70
2018-12-20T17:39:01.460Z,4.70
2018-12-20T17:41:29.572Z,4.70
2018-12-20T17:43:57.896Z,4.70
2018-12-20T17:46:26.031Z,4.80
2018-12-20T17:48:54.134Z,4.70
2018-12-20T17:51:22.276Z,4.80
2018-12-20T17:53:50.363Z,4.80
2018-12-20T17:56:18.472Z,4.80
2018-12-20T17:58:46.851Z,4.80
2018-12-20T18:01:14.948Z,4.90
2018-12-20T18:03:43.093Z,4.80
2018-12-20T18:06:11.380Z,4.80
2018-12-20T18:08:39.469Z,4.80
2018-12-20T18:11:07.574Z,4.80
2018-12-20T18:13:35.736Z,4.90
2018-12-20T18:16:03.835Z,4.90
2018-12-20T18:18:31.960Z,4.90
2018-12-20T18:21:00.133Z,4.90
2018-12-20T18:23:28.296Z,4.90
2018-12-20T18:25:56.380Z,5.00
2018-12-20T18:31:00.173Z,4.90
2018-12-20T18:33:28.276Z,4.80
2018-12-20T18:35:56.371Z,4.80
2018-12-20T18:38:24.540Z,4.90
2018-12-20T18:40:52.647Z,4.90
2018-12-20T18:43:20.744Z,5.00
2018-12-20T18:45:48.972Z,4.90
2018-12-20T18:48:17.102Z,4.90
2018-12-20T18:50:45.204Z,4.80
2018-12-20T18:53:13.432Z,4.80
2018-12-20T18:55:41.612Z,4.80
2018-12-20T18:58:09.835Z,4.90
2018-12-20T19:00:38.080Z,5.00
2018-12-20T19:03:06.231Z,5.10
2018-12-20T19:05:34.368Z,5.00
2018-12-20T19:08:02.457Z,5.10
2018-12-20T19:10:30.685Z,5.10
2018-12-20T19:12:58.858Z,5.00
2018-12-20T19:15:26.941Z,5.00
2018-12-20T19:17:55.096Z,5.00
2018-12-20T19:20:23.256Z,5.00
2018-12-20T19:22:51.348Z,4.90
2018-12-20T19:25:19.440Z,4.90
2018-12-20T19:27:47.611Z,4.90
2018-12-20T19:30:15.704Z,4.90
2018-12-20T19:32:43.807Z,4.90
2018-12-20T19:35:12.115Z,5.00
2018-12-20T19:37:40.203Z,5.00
2018-12-20T19:40:10.397Z,5.00
2018-12-20T19:42:38.539Z,5.00
2018-12-20T19:45:06.668Z,5.10
2018-12-20T19:47:34.748Z,5.10
2018-12-20T19:50:05.048Z,5.10
2018-12-20T19:52:33.016Z,5.00
2018-12-20T19:55:01.108Z,5.10
2018-12-20T19:57:29.244Z,5.00
2018-12-20T19:59:57.354Z,5.10
2018-12-20T20:02:25.504Z,5.10
2018-12-20T20:04:53.680Z,5.10
2018-12-20T20:07:23.887Z,5.00
2018-12-20T20:09:51.892Z,5.10
2018-12-20T20:12:20.059Z,5.10
2018-12-20T20:14:48.164Z,5.20
2018-12-20T20:17:16.255Z,5.20
2018-12-20T20:19:44.564Z,5.20
2018-12-20T20:22:12.655Z,5.20
2018-12-20T20:24:40.759Z,5.20
2018-12-20T20:27:08.996Z,5.30
2018-12-20T20:29:37.089Z,5.30
2018-12-20T20:32:05.185Z,5.20
2018-12-20T20:34:33.327Z,5.20
2018-12-20T20:37:01.419Z,5.20
2018-12-20T20:39:29.613Z,5.10
2018-12-20T20:41:57.751Z,5.10
2018-12-20T20:44:25.858Z,5.10
2018-12-20T20:46:53.952Z,5.10
2018-12-20T20:49:22.106Z,5.00
2018-12-20T20:51:50.200Z,5.00
2018-12-20T20:54:18.284Z,5.00
2018-12-20T20:56:46.427Z,5.00
2018-12-20T20:59:14.487Z,5.00
2018-12-20T21:01:42.588Z,5.00
2018-12-20T21:04:10.822Z,5.00
2018-12-20T21:06:46.850Z,4.90
2018-12-20T21:09:09.029Z,4.90
2018-12-20T21:11:37.191Z,4.80
2018-12-20T21:14:05.327Z,4.80
2018-12-20T21:16:33.417Z,4.80
2018-12-20T21:19:01.559Z,4.70
2018-12-20T21:21:29.648Z,4.70
2018-12-20T21:23:57.851Z,4.60
2018-12-20T21:26:26.361Z,4.70
2018-12-20T21:28:54.464Z,4.70
2018-12-20T21:31:22.620Z,4.70
2018-12-20T21:33:50.708Z,4.70
2018-12-20T21:36:18.803Z,4.70
2018-12-20T21:38:47.095Z,4.60
2018-12-20T21:41:15.312Z,4.70
2018-12-20T21:43:43.427Z,4.70
2018-12-20T21:46:11.584Z,4.80
2018-12-20T21:48:39.677Z,4.70
2018-12-20T21:51:07.795Z,4.70
2018-12-20T21:53:36.135Z,4.70
2018-12-20T21:56:04.231Z,4.70
2018-12-20T21:58:32.327Z,4.70
2018-12-20T22:01:00.465Z,4.70
2018-12-20T22:03:28.623Z,4.60
2018-12-20T22:05:56.803Z,4.60
2018-12-20T22:08:24.917Z,4.50
2018-12-20T22:10:53.083Z,4.50
2018-12-20T22:13:21.184Z,4.50
2018-12-20T22:15:49.275Z,4.40
2018-12-20T22:18:17.447Z,4.40
2018-12-20T22:20:47.341Z,4.40
2018-12-20T22:23:15.659Z,4.30
2018-12-20T22:25:43.928Z,4.30
2018-12-20T22:28:11.993Z,4.30
2018-12-20T22:30:40.106Z,4.30
2018-12-20T22:33:08.247Z,4.30
2018-12-20T22:35:36.347Z,4.40
2018-12-20T22:38:04.448Z,4.30
2018-12-20T22:40:32.595Z,4.40
2018-12-20T22:43:00.727Z,4.40
2018-12-20T22:45:28.827Z,4.40
2018-12-20T22:47:57.036Z,4.30
2018-12-20T22:50:25.171Z,4.30
2018-12-20T22:52:53.274Z,4.30
2018-12-20T22:55:21.376Z,4.30
2018-12-20T22:57:49.702Z,4.30
2018-12-20T23:00:17.906Z,4.30
2018-12-20T23:02:46.000Z,4.20
2018-12-20T23:05:14.183Z,4.20
2018-12-20T23:07:42.364Z,4.20
2018-12-20T23:10:10.459Z,4.20
2018-12-20T23:12:38.572Z,4.10
2018-12-20T23:15:06.728Z,4.20
2018-12-20T23:17:34.837Z,4.10
2018-12-20T23:20:02.938Z,4.00
2018-12-20T23:22:31.152Z,3.90
2018-12-20T23:24:59.279Z,3.70
2018-12-20T23:27:27.445Z,3.60
2018-12-20T23:29:55.520Z,3.50
2018-12-20T23:32:23.609Z,3.40
2018-12-20T23:34:51.919Z,3.40
2018-12-20T23:37:20.020Z,3.30
2018-12-20T23:39:48.126Z,3.40
2018-12-20T23:42:16.315Z,3.40
2018-12-20T23:44:44.415Z,3.40
2018-12-20T23:47:12.523Z,3.40
2018-12-20T23:49:40.670Z,3.50
2018-12-20T23:52:08.755Z,3.50
2018-12-20T23:54:36.899Z,3.50
2018-12-20T23:57:05.008Z,3.50
2018-12-20T23:59:33.099Z,3.60
